Time;durP1;ratioP1;P1;durP2;ratioP2;P2;SDS_P1;SDS_P2;PMS_P1;PMS_P2;Temp;Humidity;BMP_temperature;BMP_pressure;BME280_temperature;BME280_humidity;BME280_pressure;Samples;Min_cycle;Max_cycle;Signal;HPM_P1;HPM_P2
2021/12/21 00:07:33;;;;;;;17.40;9.77;;;-1.80;99.90;;;;;;4832976;29;20453;-96
2021/12/21 00:13:03;;;;;;;16.77;10.60;;;-1.70;99.90;;;;;;4837696;29;21637;-95
2021/12/21 00:15:43;;;;;;;15.80;9.10;;;-1.80;99.90;;;;;;4835280;29;20489;-95
2021/12/21 00:20:56;;;;;;;12.63;8.77;;;-1.70;99.90;;;;;;4836887;29;20469;-94
2021/12/21 00:23:42;;;;;;;15.50;8.10;;;-1.60;99.90;;;;;;4834164;29;20447;-96
2021/12/21 00:26:21;;;;;;;13.93;8.20;;;-1.60;99.90;;;;;;4834705;29;20477;-96
2021/12/21 00:31:20;;;;;;;15.10;8.53;;;-1.70;99.90;;;;;;4825251;29;20455;-95
2021/12/21 00:33:47;;;;;;;19.00;9.57;;;-1.70;99.90;;;;;;4826110;29;20964;-95
2021/12/21 00:36:17;;;;;;;14.90;9.13;;;-1.70;99.90;;;;;;4823231;29;20490;-96
2021/12/21 00:38:44;;;;;;;11.63;8.33;;;-1.70;99.90;;;;;;4817029;29;20451;-96
2021/12/21 00:41:17;;;;;;;16.60;9.13;;;-1.70;99.90;;;;;;4835910;29;20451;-95
2021/12/21 00:43:56;;;;;;;10.80;8.80;;;-1.70;99.90;;;;;;4824113;29;20467;-95
2021/12/21 00:46:44;;;;;;;11.60;8.33;;;-1.70;99.90;;;;;;4829292;29;20460;-94
2021/12/21 00:49:14;;;;;;;13.13;8.93;;;-1.70;99.90;;;;;;4820684;29;20481;-96
2021/12/21 00:51:46;;;;;;;13.50;8.97;;;-1.70;99.90;;;;;;4832685;29;20455;-96
2021/12/21 00:54:13;;;;;;;12.33;7.33;;;-1.70;99.90;;;;;;4815387;29;20475;-96
2021/12/21 00:56:39;;;;;;;11.40;7.57;;;-1.70;99.90;;;;;;4829287;29;20489;-96
2021/12/21 00:59:05;;;;;;;16.87;8.73;;;-1.70;99.90;;;;;;4828798;29;20470;-96
2021/12/21 01:01:35;;;;;;;15.57;9.17;;;-1.70;99.90;;;;;;4835032;29;20474;-95
2021/12/21 01:04:03;;;;;;;14.33;7.90;;;-1.70;99.90;;;;;;4830832;29;20625;-96
2021/12/21 01:12:04;;;;;;;12.13;7.93;;;-1.90;99.90;;;;;;4793602;29;20462;-96
2021/12/21 01:17:19;;;;;;;20.63;8.73;;;-1.50;99.90;;;;;;4822933;29;20495;-96
2021/12/21 01:19:59;;;;;;;13.30;7.80;;;-1.90;99.90;;;;;;4825511;29;20466;-96
2021/12/21 01:22:54;;;;;;;11.10;7.57;;;-1.90;99.90;;;;;;4821303;29;20469;-96
2021/12/21 01:25:31;;;;;;;8.73;7.33;;;-1.90;99.90;;;;;;4823364;29;20470;-96
2021/12/21 01:50:23;;;;;;;11.67;6.80;;;-1.90;99.90;;;;;;4841861;29;20562;-96
2021/12/21 01:52:50;;;;;;;14.03;6.80;;;-1.90;99.90;;;;;;4822065;29;20817;-96
2021/12/21 01:55:16;;;;;;;10.93;7.00;;;-1.90;99.90;;;;;;4824194;29;20665;-95
2021/12/21 01:57:41;;;;;;;13.10;6.50;;;-2.00;99.90;;;;;;4823994;29;20572;-96
2021/12/21 02:00:13;;;;;;;11.97;7.30;;;-2.00;99.90;;;;;;4830631;29;20690;-96
2021/12/21 02:02:39;;;;;;;11.70;7.60;;;-2.00;99.90;;;;;;4824915;29;20265;-96
2021/12/21 02:05:07;;;;;;;10.80;6.10;;;-2.00;99.90;;;;;;4840319;29;20503;-96
2021/12/21 02:07:34;;;;;;;11.97;7.30;;;-2.00;99.90;;;;;;4824906;29;20581;-96
2021/12/21 02:10:00;;;;;;;8.57;6.43;;;-2.10;99.90;;;;;;4823819;29;20474;-96
2021/12/21 02:12:26;;;;;;;11.20;7.23;;;-2.10;99.90;;;;;;4832266;29;21619;-96
2021/12/21 02:14:58;;;;;;;15.13;6.90;;;-2.20;99.90;;;;;;4827544;29;21141;-96
2021/12/21 02:22:54;;;;;;;9.47;5.60;;;-2.20;99.90;;;;;;4838396;29;20469;-96
2021/12/21 02:30:35;;;;;;;9.70;6.93;;;-2.30;99.90;;;;;;4838897;29;20535;-94
2021/12/21 02:33:02;;;;;;;8.43;5.37;;;-2.30;99.90;;;;;;4820023;29;20458;-95
2021/12/21 02:35:29;;;;;;;8.53;5.37;;;-2.30;99.90;;;;;;4830307;29;20584;-95
2021/12/21 02:37:58;;;;;;;9.23;5.57;;;-2.30;99.90;;;;;;4822602;29;20875;-95
2021/12/21 02:40:41;;;;;;;9.10;5.97;;;-2.30;99.90;;;;;;4831109;29;20450;-95
2021/12/21 02:43:15;;;;;;;9.90;5.53;;;-2.30;99.90;;;;;;4827971;29;20477;-96
2021/12/21 02:45:42;;;;;;;10.27;6.00;;;-2.30;99.90;;;;;;4827654;29;21029;-96
2021/12/21 02:48:09;;;;;;;6.30;4.80;;;-2.30;99.90;;;;;;4822859;29;20245;-96
2021/12/21 02:53:35;;;;;;;8.63;4.80;;;-2.30;99.90;;;;;;4838588;29;20526;-96
2021/12/21 02:56:21;;;;;;;8.50;5.30;;;-2.30;99.90;;;;;;4845946;29;20678;-96
2021/12/21 02:58:50;;;;;;;8.00;5.03;;;-2.30;99.90;;;;;;4830983;29;20465;-96
2021/12/21 03:01:17;;;;;;;8.50;4.40;;;-2.40;99.90;;;;;;4811294;29;20465;-96
2021/12/21 03:03:43;;;;;;;5.90;4.43;;;-2.40;99.90;;;;;;4827756;29;20474;-96
2021/12/21 03:06:19;;;;;;;7.63;5.50;;;-2.50;99.90;;;;;;4823462;29;20485;-96
2021/12/21 03:08:55;;;;;;;9.10;4.97;;;-2.60;99.90;;;;;;4823632;29;20661;-96
2021/12/21 03:11:35;;;;;;;9.77;5.40;;;-2.60;99.90;;;;;;4822409;29;20464;-95
2021/12/21 03:14:04;;;;;;;7.10;4.83;;;-2.70;99.90;;;;;;4822681;29;20466;-95
2021/12/21 03:16:34;;;;;;;8.77;5.33;;;-2.50;99.90;;;;;;4826950;29;20618;-96
2021/12/21 03:19:00;;;;;;;9.47;4.80;;;-2.50;99.90;;;;;;4822773;29;20596;-96
2021/12/21 03:21:30;;;;;;;7.23;4.70;;;-2.50;99.90;;;;;;4824135;29;20467;-95
2021/12/21 03:23:56;;;;;;;7.60;5.50;;;-2.50;99.90;;;;;;4823163;29;20562;-96
2021/12/21 03:26:22;;;;;;;11.93;5.20;;;-2.50;99.90;;;;;;4828163;29;20499;-96
2021/12/21 03:28:48;;;;;;;5.87;4.53;;;-2.50;99.90;;;;;;4819359;29;20461;-96
2021/12/21 03:31:13;;;;;;;6.27;4.47;;;-2.50;99.90;;;;;;4823729;29;20471;-96
2021/12/21 03:33:39;;;;;;;5.30;4.77;;;-2.50;99.90;;;;;;4837360;29;20977;-96
2021/12/21 03:36:05;;;;;;;6.33;4.97;;;-2.50;99.90;;;;;;4826055;29;20256;-95
2021/12/21 03:38:33;;;;;;;6.57;4.60;;;-2.50;99.90;;;;;;4841661;29;20659;-95
2021/12/21 03:41:04;;;;;;;8.70;5.00;;;-2.50;99.90;;;;;;4823265;29;20813;-95
2021/12/21 03:43:33;;;;;;;10.40;5.30;;;-2.40;99.90;;;;;;4825732;29;21103;-95
2021/12/21 03:46:09;;;;;;;8.27;5.30;;;-2.50;99.90;;;;;;4831908;29;20541;-95
2021/12/21 03:48:35;;;;;;;9.03;4.57;;;-2.60;99.90;;;;;;4848233;29;20806;-96
2021/12/21 03:51:01;;;;;;;8.67;4.80;;;-2.70;99.90;;;;;;4850616;29;20477;-96
2021/12/21 03:53:30;;;;;;;9.50;5.23;;;-2.80;99.90;;;;;;4833292;29;20454;-95
2021/12/21 03:56:14;;;;;;;6.90;4.33;;;-2.80;99.90;;;;;;4827062;29;20482;-96
2021/12/21 03:58:40;;;;;;;10.17;5.17;;;-2.60;99.90;;;;;;4827872;29;20507;-95
2021/12/21 04:01:06;;;;;;;7.20;5.00;;;-2.70;99.90;;;;;;4828283;29;20469;-96
2021/12/21 04:03:32;;;;;;;6.77;5.03;;;-2.80;99.90;;;;;;4835995;29;21867;-95
2021/12/21 04:05:57;;;;;;;8.03;4.30;;;-2.70;99.90;;;;;;4834958;29;20478;-96
2021/12/21 04:08:23;;;;;;;10.87;4.83;;;-2.70;99.90;;;;;;4831439;29;21079;-96
2021/12/21 04:10:51;;;;;;;7.43;4.33;;;-2.60;99.90;;;;;;4834449;29;20197;-96
2021/12/21 04:13:16;;;;;;;10.60;6.80;;;-2.50;99.90;;;;;;4833376;29;20510;-96
2021/12/21 04:15:43;;;;;;;12.23;7.80;;;-2.50;99.90;;;;;;4835042;29;20742;-96
2021/12/21 04:18:10;;;;;;;12.10;8.27;;;-2.50;99.90;;;;;;4841112;29;20580;-96
2021/12/21 04:20:36;;;;;;;14.57;8.57;;;-2.70;99.90;;;;;;4840948;29;20446;-96
2021/12/21 04:23:02;;;;;;;11.43;8.37;;;-2.70;99.90;;;;;;4855243;29;20984;-95
2021/12/21 04:25:28;;;;;;;11.30;7.57;;;-2.80;99.90;;;;;;4834165;29;21093;-96
2021/12/21 04:27:54;;;;;;;9.47;7.90;;;-2.90;99.90;;;;;;4843956;29;20574;-96
2021/12/21 04:30:20;;;;;;;10.60;6.37;;;-3.00;99.90;;;;;;4832314;29;20324;-95
2021/12/21 04:32:49;;;;;;;9.27;7.10;;;-3.00;99.90;;;;;;4834055;29;20455;-95
2021/12/21 04:35:19;;;;;;;11.37;7.00;;;-3.10;99.90;;;;;;4835697;29;20454;-95
2021/12/21 04:37:53;;;;;;;12.53;7.30;;;-3.10;99.90;;;;;;4837028;29;21290;-96
2021/12/21 04:40:36;;;;;;;9.37;6.63;;;-3.10;99.90;;;;;;4834134;29;20952;-96
2021/12/21 04:43:03;;;;;;;10.03;6.43;;;-3.00;99.90;;;;;;4825985;29;20809;-96
2021/12/21 04:45:28;;;;;;;8.27;6.60;;;-3.00;99.90;;;;;;4826043;29;20507;-96
2021/12/21 04:47:54;;;;;;;11.00;6.43;;;-3.20;99.90;;;;;;4829626;29;20581;-96
2021/12/21 04:50:22;;;;;;;14.77;7.50;;;-3.20;99.90;;;;;;4844207;29;20786;-96
2021/12/21 04:52:51;;;;;;;7.13;6.43;;;-3.30;99.90;;;;;;4825869;29;20325;-95
2021/12/21 04:55:16;;;;;;;8.67;6.10;;;-3.30;99.90;;;;;;4841100;29;20467;-96
2021/12/21 04:57:43;;;;;;;14.67;6.70;;;-3.30;99.90;;;;;;4827111;29;20490;-96
2021/12/21 05:00:11;;;;;;;12.30;6.20;;;-3.30;99.90;;;;;;4828688;29;20241;-95
2021/12/21 05:02:37;;;;;;;8.93;6.73;;;-3.40;99.90;;;;;;4830937;29;20900;-96
2021/12/21 05:05:04;;;;;;;7.07;5.23;;;-3.40;99.90;;;;;;4831905;29;20441;-96
2021/12/21 05:07:32;;;;;;;10.23;5.50;;;-3.40;99.90;;;;;;4831579;29;21824;-96
2021/12/21 05:10:06;;;;;;;8.07;5.60;;;-3.30;99.90;;;;;;4841947;29;20463;-96
2021/12/21 05:12:32;;;;;;;6.87;4.73;;;-3.30;99.90;;;;;;4823209;29;20463;-95
2021/12/21 05:14:58;;;;;;;7.70;5.80;;;-3.40;99.90;;;;;;4842907;29;20457;-95
2021/12/21 05:17:23;;;;;;;7.90;4.83;;;-3.40;99.90;;;;;;4825057;29;20229;-95
2021/12/21 05:19:49;;;;;;;9.47;6.77;;;-3.30;99.90;;;;;;4824352;29;20702;-95
2021/12/21 05:22:16;;;;;;;10.73;6.47;;;-3.40;99.90;;;;;;4827084;29;20209;-94
2021/12/21 05:24:42;;;;;;;13.60;7.53;;;-3.40;99.90;;;;;;4823193;29;20480;-95
2021/12/21 05:27:09;;;;;;;9.40;8.13;;;-3.50;99.90;;;;;;4824159;29;20212;-95
2021/12/21 05:29:35;;;;;;;9.75;6.93;;;-3.50;99.90;;;;;;4828681;29;20458;-95
2021/12/21 05:32:02;;;;;;;13.05;7.82;;;-3.50;99.90;;;;;;4824647;29;20213;-95
2021/12/21 05:34:28;;;;;;;14.15;8.45;;;-3.30;99.90;;;;;;4829973;29;20213;-95
2021/12/21 05:36:55;;;;;;;11.17;8.00;;;-3.60;99.90;;;;;;4831133;29;20586;-95
2021/12/21 05:39:25;;;;;;;10.32;7.00;;;-3.60;99.90;;;;;;4827536;29;20498;-95
2021/12/21 05:41:52;;;;;;;11.95;8.32;;;-3.60;99.90;;;;;;4836960;29;20209;-95
2021/12/21 05:44:28;;;;;;;12.00;8.20;;;-3.60;99.90;;;;;;4842463;29;20280;-95
2021/12/21 05:46:55;;;;;;;12.53;7.70;;;-3.60;99.90;;;;;;4826218;29;20893;-96
2021/12/21 05:49:21;;;;;;;12.90;7.70;;;-3.60;99.90;;;;;;4840496;29;20209;-95
2021/12/21 05:51:48;;;;;;;11.38;6.35;;;-3.60;99.90;;;;;;4828216;29;20294;-96
2021/12/21 05:54:18;;;;;;;11.50;7.80;;;-3.70;99.90;;;;;;4827351;29;20205;-96
2021/12/21 05:56:44;;;;;;;15.85;9.65;;;-3.70;99.90;;;;;;4822886;29;21999;-94
2021/12/21 05:59:14;;;;;;;15.20;9.30;;;-3.80;99.90;;;;;;4824324;29;20209;-94
2021/12/21 06:01:40;;;;;;;14.82;8.40;;;-3.80;99.90;;;;;;4837616;29;20217;-95
2021/12/21 06:04:06;;;;;;;14.23;8.10;;;-3.70;99.90;;;;;;4826292;29;20561;-95
2021/12/21 06:06:35;;;;;;;14.83;6.80;;;-3.90;99.90;;;;;;4827213;29;20216;-93
2021/12/21 06:09:05;;;;;;;11.27;6.90;;;-3.90;99.90;;;;;;4831316;29;20194;-93
2021/12/21 06:11:37;;;;;;;13.93;6.72;;;-4.10;99.90;;;;;;4832848;29;20206;-92
2021/12/21 06:27:13;;;;;;;14.30;7.97;;;-4.10;99.90;;;;;;4839932;29;20226;-93
2021/12/21 06:29:40;;;;;;;10.35;6.03;;;-4.20;99.90;;;;;;4827687;29;20190;-94
2021/12/21 06:32:06;;;;;;;9.45;7.00;;;-4.30;99.90;;;;;;4828577;29;20303;-93
2021/12/21 06:34:32;;;;;;;9.25;6.90;;;-4.30;99.90;;;;;;4825919;29;20289;-94
2021/12/21 06:36:58;;;;;;;11.13;7.13;;;-4.20;99.90;;;;;;4828386;29;20255;-93
2021/12/21 06:39:27;;;;;;;10.75;7.60;;;-4.30;99.90;;;;;;4832662;29;20459;-93
2021/12/21 06:41:53;;;;;;;11.27;6.50;;;-4.20;99.90;;;;;;4832058;29;20612;-94
2021/12/21 06:44:20;;;;;;;14.10;7.47;;;-4.20;99.90;;;;;;4837213;29;20205;-93
2021/12/21 06:52:13;;;;;;;10.93;7.10;;;-4.30;99.90;;;;;;4847087;29;20248;-96
2021/12/21 06:54:41;;;;;;;7.75;6.38;;;-4.30;99.90;;;;;;4836246;29;20202;-93
2021/12/21 06:57:10;;;;;;;12.52;6.90;;;-4.40;99.90;;;;;;4826068;29;20384;-96
2021/12/21 06:59:36;;;;;;;11.63;8.47;;;-4.40;99.90;;;;;;4828620;29;20203;-93
2021/12/21 07:02:02;;;;;;;9.40;6.90;;;-4.40;99.90;;;;;;4823901;29;20276;-93
2021/12/21 07:04:28;;;;;;;11.05;7.15;;;-4.30;99.90;;;;;;4844504;29;20450;-93
2021/12/21 07:06:55;;;;;;;11.18;7.55;;;-4.30;99.90;;;;;;4821167;29;20247;-93
2021/12/21 07:09:37;;;;;;;9.38;6.80;;;-4.30;99.90;;;;;;4841171;29;20190;-93
2021/12/21 07:20:10;;;;;;;11.57;8.02;;;-4.20;99.90;;;;;;4846862;29;20244;-93
2021/12/21 07:22:38;;;;;;;12.88;6.93;;;-4.20;99.90;;;;;;4831536;29;21004;-93
2021/12/21 07:25:04;;;;;;;12.57;8.75;;;-4.00;99.90;;;;;;4833272;29;20297;-95
2021/12/21 07:27:30;;;;;;;17.63;7.35;;;-4.10;99.90;;;;;;4833582;29;20295;-94
2021/12/21 07:29:55;;;;;;;15.20;7.27;;;-4.10;99.90;;;;;;4831445;29;20208;-95
2021/12/21 07:32:21;;;;;;;10.80;8.03;;;-4.10;99.90;;;;;;4827802;29;20193;-93
2021/12/21 07:34:47;;;;;;;11.97;7.70;;;-4.00;99.90;;;;;;4829889;29;20321;-95
2021/12/21 07:37:15;;;;;;;12.30;7.57;;;-4.10;99.90;;;;;;4826842;29;20285;-95
2021/12/21 07:39:40;;;;;;;13.45;7.65;;;-4.00;99.90;;;;;;4831155;29;20210;-94
2021/12/21 07:42:07;;;;;;;9.70;8.13;;;-4.10;99.90;;;;;;4832243;29;20207;-94
2021/12/21 07:44:33;;;;;;;13.05;7.40;;;-4.10;99.90;;;;;;4830032;29;20318;-94
2021/12/21 07:46:58;;;;;;;11.10;7.40;;;-4.10;99.90;;;;;;4844458;29;20952;-95
2021/12/21 07:49:25;;;;;;;12.83;7.00;;;-4.00;99.90;;;;;;4836923;29;20212;-93
2021/12/21 07:51:51;;;;;;;11.60;7.27;;;-4.00;99.90;;;;;;4827877;29;20494;-93
2021/12/21 07:54:21;;;;;;;10.52;7.03;;;-4.00;99.90;;;;;;4834392;29;20448;-93
2021/12/21 07:56:47;;;;;;;9.20;6.93;;;-3.90;99.90;;;;;;4852639;29;20233;-95
2021/12/21 07:59:46;;;;;;;9.30;7.37;;;-3.80;99.90;;;;;;4835604;29;20224;-95
2021/12/21 08:02:13;;;;;;;12.27;7.60;;;-3.80;99.90;;;;;;4832543;29;20967;-95
2021/12/21 08:04:43;;;;;;;12.17;8.47;;;-3.70;99.90;;;;;;4835091;29;20481;-94
2021/12/21 08:07:13;;;;;;;10.10;7.50;;;-3.70;99.90;;;;;;4833267;29;20504;-94
2021/12/21 08:09:43;;;;;;;11.40;6.88;;;-3.50;99.90;;;;;;4848602;29;21068;-94
2021/12/21 08:14:38;;;;;;;11.20;7.10;;;-3.30;99.90;;;;;;4843828;29;20455;-94
2021/12/21 08:17:04;;;;;;;11.57;7.37;;;-3.10;99.90;;;;;;4829516;29;20455;-94
2021/12/21 08:19:30;;;;;;;11.87;7.27;;;-3.00;99.90;;;;;;4825855;29;21234;-93
2021/12/21 08:21:56;;;;;;;10.03;6.53;;;-2.90;99.90;;;;;;4829544;29;20211;-92
2021/12/21 08:24:21;;;;;;;8.93;6.43;;;-2.70;99.90;;;;;;4829677;29;20684;-92
2021/12/21 08:26:47;;;;;;;8.50;5.77;;;-2.60;99.90;;;;;;4832433;29;20276;-94
2021/12/21 08:29:13;;;;;;;9.97;6.47;;;-2.50;99.90;;;;;;4833187;29;20212;-96
2021/12/21 08:31:38;;;;;;;7.70;5.53;;;-2.30;99.90;;;;;;4828717;29;20204;-93
2021/12/21 08:34:12;;;;;;;7.97;5.27;;;-1.50;99.90;;;;;;4828564;29;20744;-93
2021/12/21 08:36:37;;;;;;;6.77;5.37;;;-0.10;99.90;;;;;;4846039;29;20193;-94
2021/12/21 08:39:04;;;;;;;4.97;4.43;;;1.10;99.90;;;;;;4829887;29;20467;-94
2021/12/21 08:41:31;;;;;;;6.70;4.63;;;2.60;99.90;;;;;;4823750;29;20224;-96
2021/12/21 08:44:00;;;;;;;7.37;5.07;;;3.60;99.90;;;;;;4829667;29;20542;-96
2021/12/21 08:46:26;;;;;;;5.10;4.60;;;4.20;99.90;;;;;;4828687;29;21206;-95
2021/12/21 08:48:51;;;;;;;6.60;4.93;;;4.20;99.90;;;;;;4831914;29;20540;-95
2021/12/21 08:51:19;;;;;;;6.80;4.50;;;4.10;99.90;;;;;;4831134;29;20224;-94
2021/12/21 08:53:45;;;;;;;6.37;5.50;;;3.80;99.90;;;;;;4847112;29;20740;-93
2021/12/21 08:56:16;;;;;;;7.57;5.33;;;3.70;99.90;;;;;;4836483;29;20658;-94
2021/12/21 08:58:42;;;;;;;8.00;5.73;;;3.50;99.90;;;;;;4838656;29;20548;-96
2021/12/21 09:01:08;;;;;;;7.30;5.30;;;3.10;99.90;;;;;;4849092;29;20540;-96
2021/12/21 09:03:34;;;;;;;7.37;5.00;;;2.90;99.90;;;;;;4842975;29;20560;-95
2021/12/21 09:06:02;;;;;;;9.83;5.60;;;2.50;99.90;;;;;;4838809;29;22353;-94
2021/12/21 09:08:31;;;;;;;6.03;5.00;;;2.50;99.90;;;;;;4836437;29;20480;-95
2021/12/21 09:11:03;;;;;;;7.60;5.00;;;2.70;99.90;;;;;;4840334;29;20594;-95
2021/12/21 09:13:29;;;;;;;7.90;5.03;;;2.70;99.90;;;;;;4839312;29;20594;-96
2021/12/21 09:15:55;;;;;;;5.30;4.80;;;2.50;99.90;;;;;;4840904;29;20483;-95
2021/12/21 09:18:21;;;;;;;6.90;5.70;;;2.60;99.90;;;;;;4836086;29;22149;-96
2021/12/21 09:20:47;;;;;;;5.77;4.57;;;2.50;99.90;;;;;;4828059;29;20481;-96
2021/12/21 09:23:14;;;;;;;6.63;4.50;;;2.60;99.90;;;;;;4834392;29;20780;-94
2021/12/21 09:25:40;;;;;;;7.00;4.97;;;2.80;99.90;;;;;;4837219;29;20197;-94
2021/12/21 09:28:06;;;;;;;5.77;4.90;;;2.80;99.90;;;;;;4845736;29;20493;-94
2021/12/21 09:30:32;;;;;;;12.07;5.50;;;2.90;99.90;;;;;;4830126;29;20641;-93
2021/12/21 09:33:01;;;;;;;5.57;5.07;;;3.10;99.90;;;;;;4828418;29;21272;-92
2021/12/21 09:35:28;;;;;;;6.70;5.17;;;3.30;99.90;;;;;;4826545;29;21088;-94
2021/12/21 09:38:04;;;;;;;5.30;4.80;;;3.60;99.90;;;;;;4848594;29;20281;-93
2021/12/21 09:40:38;;;;;;;6.73;5.17;;;3.30;99.90;;;;;;4826546;29;21437;-93
2021/12/21 09:43:08;;;;;;;8.60;5.30;;;3.80;99.90;;;;;;4840667;29;20470;-92
2021/12/21 09:45:33;;;;;;;5.77;5.20;;;4.00;99.90;;;;;;4827731;29;20458;-93
2021/12/21 09:47:59;;;;;;;6.93;4.90;;;4.30;99.90;;;;;;4834229;29;20445;-96
2021/12/21 09:50:27;;;;;;;14.20;12.70;;;4.90;99.90;;;;;;4838752;29;20275;-96
2021/12/21 09:52:54;;;;;;;17.47;11.70;;;5.60;99.20;;;;;;4837473;29;20200;-96
2021/12/21 09:55:21;;;;;;;10.57;9.20;;;6.40;97.40;;;;;;4837731;29;20752;-94
2021/12/21 09:57:48;;;;;;;11.43;8.43;;;6.60;96.60;;;;;;4850053;29;20584;-95
2021/12/21 10:00:18;;;;;;;8.83;7.53;;;7.00;95.40;;;;;;4832315;29;20443;-96
2021/12/21 10:02:44;;;;;;;13.57;8.50;;;8.00;93.50;;;;;;4836736;29;20528;-96
2021/12/21 10:05:13;;;;;;;8.20;6.97;;;8.70;91.30;;;;;;4876870;29;20458;-95
2021/12/21 10:07:40;;;;;;;7.97;7.17;;;9.20;90.20;;;;;;4875728;29;20438;-96
2021/12/21 10:10:15;;;;;;;7.60;5.77;;;10.10;86.80;;;;;;4866295;29;20467;-96
2021/12/21 10:12:51;;;;;;;6.33;5.63;;;10.50;84.00;;;;;;4875555;29;20466;-96
2021/12/21 10:15:22;;;;;;;6.33;5.73;;;10.30;84.20;;;;;;4865966;29;20463;-96
2021/12/21 10:17:52;;;;;;;5.40;4.90;;;9.60;86.80;;;;;;4846911;29;20733;-96
2021/12/21 10:20:40;;;;;;;6.00;4.90;;;9.70;86.90;;;;;;4846050;29;20469;-96
2021/12/21 10:23:34;;;;;;;6.60;5.17;;;10.00;84.20;;;;;;4834123;29;20469;-95
2021/12/21 10:26:30;;;;;;;8.77;5.30;;;10.30;83.30;;;;;;4840906;29;20451;-96
2021/12/21 10:29:08;;;;;;;6.73;5.87;;;10.60;81.30;;;;;;4845243;29;20809;-95
2021/12/21 10:31:40;;;;;;;5.80;5.20;;;10.50;79.10;;;;;;4839348;29;21626;-95
2021/12/21 10:34:30;;;;;;;6.70;5.60;;;10.50;79.20;;;;;;4834658;29;20445;-96
2021/12/21 10:36:57;;;;;;;7.03;6.13;;;10.70;79.50;;;;;;4837454;29;20564;-96
2021/12/21 10:39:31;;;;;;;5.77;5.27;;;10.80;79.00;;;;;;4848867;29;20473;-96
2021/12/21 10:42:09;;;;;;;7.30;6.30;;;11.10;78.70;;;;;;4834610;29;20541;-96
2021/12/21 10:44:44;;;;;;;6.60;5.90;;;11.00;78.00;;;;;;4844354;29;20462;-96
2021/12/21 10:47:11;;;;;;;7.00;5.63;;;11.20;77.60;;;;;;4836185;29;20517;-95
2021/12/21 10:49:40;;;;;;;7.70;6.70;;;11.70;76.50;;;;;;4832269;29;20553;-95
2021/12/21 10:52:09;;;;;;;6.17;5.57;;;11.90;76.00;;;;;;4830148;29;20981;-96
2021/12/21 10:54:41;;;;;;;7.10;6.37;;;12.30;73.60;;;;;;4835315;29;21043;-96
2021/12/21 10:57:12;;;;;;;15.13;6.33;;;12.30;73.30;;;;;;4854854;29;20489;-96
2021/12/21 10:59:41;;;;;;;7.30;6.60;;;12.30;73.00;;;;;;4859334;29;20458;-96
2021/12/21 11:02:07;;;;;;;8.10;7.30;;;12.50;73.90;;;;;;4853370;29;20462;-96
2021/12/21 11:04:39;;;;;;;6.77;6.17;;;12.80;72.50;;;;;;4876091;29;20463;-95
2021/12/21 11:07:28;;;;;;;8.07;6.60;;;13.00;70.80;;;;;;4837652;29;20461;-95
2021/12/21 11:10:00;;;;;;;6.47;5.90;;;12.40;71.90;;;;;;4839943;29;20478;-96
2021/12/21 11:12:27;;;;;;;8.03;6.27;;;12.30;71.60;;;;;;4850306;29;20706;-96
2021/12/21 11:15:00;;;;;;;7.87;6.70;;;12.60;71.60;;;;;;4853690;29;20457;-96
2021/12/21 11:17:26;;;;;;;7.13;6.27;;;12.40;72.10;;;;;;4874720;29;20486;-96
2021/12/21 11:38:54;;;;;;;7.40;6.40;;;14.00;67.90;;;;;;4849962;29;20474;-94
2021/12/21 11:41:21;;;;;;;7.77;6.30;;;13.60;65.60;;;;;;4831735;29;20476;-95
2021/12/21 11:43:59;;;;;;;7.43;6.73;;;13.50;65.60;;;;;;4848054;29;20511;-95
2021/12/21 11:47:04;;;;;;;7.70;6.80;;;13.30;65.80;;;;;;4827431;29;20474;-93
2021/12/21 11:50:11;;;;;;;7.47;5.87;;;13.40;66.50;;;;;;4841933;29;22492;-95
2021/12/21 11:52:55;;;;;;;7.13;6.43;;;12.80;66.70;;;;;;4828075;29;20846;-95
2021/12/21 11:55:25;;;;;;;6.67;6.03;;;12.90;67.30;;;;;;4828429;29;20468;-94
2021/12/21 11:57:55;;;;;;;7.53;6.50;;;12.90;68.30;;;;;;4839889;29;21534;-94
2021/12/21 12:00:25;;;;;;;8.80;6.43;;;13.60;65.90;;;;;;4827747;29;20474;-95
2021/12/21 12:02:53;;;;;;;7.70;6.10;;;13.70;65.60;;;;;;4822703;29;20460;-94
2021/12/21 12:05:29;;;;;;;6.87;6.10;;;14.00;64.40;;;;;;4826397;29;20457;-94
2021/12/21 12:08:13;;;;;;;8.70;5.97;;;14.30;63.60;;;;;;4838882;29;20674;-95
2021/12/21 12:10:54;;;;;;;6.77;6.17;;;14.20;63.40;;;;;;4834141;29;20477;-95
2021/12/21 12:13:31;;;;;;;9.10;6.37;;;14.40;65.40;;;;;;4833596;29;20458;-96
2021/12/21 12:16:11;;;;;;;7.33;6.40;;;14.90;62.50;;;;;;4848358;29;20478;-95
2021/12/21 12:18:45;;;;;;;6.70;6.10;;;15.00;62.30;;;;;;4846689;29;20569;-95
2021/12/21 12:21:20;;;;;;;7.00;6.40;;;15.30;60.00;;;;;;4831108;29;20488;-91
2021/12/21 12:23:54;;;;;;;5.87;5.37;;;14.90;62.90;;;;;;4844464;29;20462;-94
2021/12/21 12:26:45;;;;;;;6.63;5.70;;;14.70;60.80;;;;;;4852423;29;20462;-96
2021/12/21 12:29:13;;;;;;;6.80;5.20;;;15.80;59.70;;;;;;4836580;29;20454;-96
2021/12/21 12:31:40;;;;;;;5.07;4.57;;;16.80;57.70;;;;;;4830277;29;20458;-96
2021/12/21 12:34:07;;;;;;;6.13;4.83;;;17.10;56.80;;;;;;4828133;29;20474;-95
2021/12/21 12:36:54;;;;;;;6.80;5.13;;;15.20;59.00;;;;;;4827873;29;20487;-94
2021/12/21 12:39:40;;;;;;;4.73;4.43;;;15.00;60.70;;;;;;4829258;29;20632;-95
2021/12/21 12:42:12;;;;;;;6.70;4.20;;;14.60;60.30;;;;;;4834978;29;20564;-94
2021/12/21 12:44:41;;;;;;;4.47;4.13;;;15.20;59.10;;;;;;4830681;29;20459;-95
2021/12/21 12:47:11;;;;;;;4.90;4.50;;;16.40;57.90;;;;;;4834417;29;21049;-95
2021/12/21 12:49:48;;;;;;;4.50;3.80;;;18.00;55.50;;;;;;4831049;29;20461;-96
2021/12/21 12:52:17;;;;;;;4.33;3.93;;;17.80;53.00;;;;;;4831627;29;21067;-95
2021/12/21 12:54:52;;;;;;;5.80;4.07;;;17.70;53.40;;;;;;4833276;29;20539;-95
2021/12/21 12:57:27;;;;;;;4.77;4.30;;;18.10;52.90;;;;;;4832114;29;20945;-95
2021/12/21 13:00:16;;;;;;;4.93;4.10;;;17.10;54.30;;;;;;4845950;29;20462;-95
2021/12/21 13:03:11;;;;;;;5.60;4.40;;;16.50;55.20;;;;;;4832160;29;20453;-95
2021/12/21 13:05:51;;;;;;;4.30;3.77;;;16.20;55.20;;;;;;4817746;29;20533;-95
2021/12/21 13:08:21;;;;;;;6.33;4.17;;;16.20;56.10;;;;;;4829616;29;20453;-95
2021/12/21 13:10:49;;;;;;;4.00;3.70;;;14.80;56.70;;;;;;4829185;29;20469;-94
2021/12/21 13:13:16;;;;;;;3.73;3.23;;;14.90;57.10;;;;;;4829333;29;20466;-95
2021/12/21 13:15:44;;;;;;;4.37;3.67;;;15.60;56.90;;;;;;4831745;29;20984;-95
2021/12/21 13:18:17;;;;;;;4.13;3.73;;;15.90;55.70;;;;;;4827735;29;21170;-95
2021/12/21 13:20:45;;;;;;;3.90;3.60;;;15.90;54.60;;;;;;4832138;29;21125;-95
2021/12/21 13:23:14;;;;;;;3.73;3.40;;;16.20;55.00;;;;;;4845607;29;20468;-94
2021/12/21 13:25:51;;;;;;;5.90;4.30;;;14.60;55.90;;;;;;4835166;29;20511;-94
2021/12/21 13:28:17;;;;;;;4.00;3.70;;;13.60;58.70;;;;;;4827797;29;20448;-95
2021/12/21 13:30:48;;;;;;;5.23;3.50;;;12.50;59.30;;;;;;4833511;29;20455;-95
2021/12/21 13:33:23;;;;;;;3.77;3.07;;;12.80;59.70;;;;;;4848458;29;20673;-96
2021/12/21 13:36:05;;;;;;;3.13;2.83;;;13.60;59.10;;;;;;4849973;29;20457;-94
2021/12/21 13:38:31;;;;;;;5.73;3.70;;;12.60;60.40;;;;;;4832625;29;20791;-95
2021/12/21 13:41:20;;;;;;;3.87;3.40;;;11.90;61.20;;;;;;4857841;29;20504;-96
2021/12/21 13:46:25;;;;;;;5.90;3.30;;;11.70;62.80;;;;;;5362163;23;20506;-95
2021/12/21 14:02:03;;;;;;;3.40;2.93;;;10.80;63.30;;;;;;5365184;24;20516;-96
2021/12/21 14:34:36;;;;;;;3.90;3.20;;;3.20;96.20;;;;;;4846905;29;20458;-95
2021/12/21 14:37:19;;;;;;;4.40;2.63;;;3.20;96.60;;;;;;4823757;29;20695;-94
2021/12/21 14:39:49;;;;;;;2.47;2.27;;;3.20;96.80;;;;;;4821157;29;20567;-92
2021/12/21 14:42:19;;;;;;;4.40;2.90;;;3.10;97.30;;;;;;4820702;29;20453;-90
2021/12/21 14:44:51;;;;;;;8.67;3.33;;;2.90;97.40;;;;;;4834971;29;20458;-92
2021/12/21 14:47:31;;;;;;;4.53;2.97;;;2.80;98.00;;;;;;4810381;29;20899;-94
2021/12/21 14:50:13;;;;;;;8.73;3.40;;;2.70;98.30;;;;;;4836283;29;20453;-92
2021/12/21 14:52:43;;;;;;;3.17;2.87;;;2.70;98.40;;;;;;4838596;29;22434;-93
2021/12/21 14:55:30;;;;;;;4.97;3.23;;;2.60;99.00;;;;;;4844601;29;20869;-89
2021/12/21 14:57:59;;;;;;;3.90;3.00;;;2.60;99.00;;;;;;4820959;29;21035;-91
2021/12/21 15:00:50;;;;;;;5.10;4.60;;;2.50;99.50;;;;;;4821200;29;20446;-93
2021/12/21 15:03:20;;;;;;;8.10;5.07;;;2.40;99.90;;;;;;4808510;29;21147;-91
2021/12/21 15:05:48;;;;;;;5.10;4.60;;;2.30;99.90;;;;;;4818896;29;20597;-91
2021/12/21 15:08:20;;;;;;;6.90;5.80;;;2.20;99.90;;;;;;4830756;29;20474;-91
2021/12/21 15:10:48;;;;;;;5.80;5.30;;;2.10;99.90;;;;;;4830925;29;21121;-91
2021/12/21 15:13:19;;;;;;;7.33;4.50;;;2.00;99.90;;;;;;4852931;29;20600;-92
2021/12/21 15:15:46;;;;;;;5.73;5.23;;;2.00;99.90;;;;;;4824628;29;21424;-92
2021/12/21 15:18:12;;;;;;;4.97;4.47;;;2.00;99.90;;;;;;4821442;29;20516;-92
2021/12/21 15:20:53;;;;;;;6.23;4.80;;;1.90;99.90;;;;;;4823911;29;20915;-92
2021/12/21 15:23:18;;;;;;;3.87;3.40;;;1.80;99.90;;;;;;4824896;29;20750;-91
2021/12/21 15:25:44;;;;;;;5.50;4.30;;;1.70;99.90;;;;;;4823868;29;20977;-93
2021/12/21 15:28:10;;;;;;;7.63;4.40;;;1.70;99.90;;;;;;4823366;29;20264;-93
2021/12/21 15:30:35;;;;;;;9.00;4.40;;;1.60;99.90;;;;;;4831668;29;20653;-91
2021/12/21 15:33:02;;;;;;;11.60;4.13;;;1.50;99.90;;;;;;4829064;29;20199;-90
2021/12/21 15:35:33;;;;;;;5.87;4.10;;;1.50;99.90;;;;;;4820999;29;20222;-89